Time,TemperatureF,DewpointF,PressureIn,WindDirection,WindDirectionDegrees,WindSpeedMPH,WindSpeedGustMPH,Humidity,HourlyPrecipIn,Conditions,Clouds,dailyrainin,SolarRadiationWatts/m^2,SoftwareType,DateUTC
2013-05-11 00:21:00,63.0,36.0,-100.00,North,350,6.0,13.0,37,0.00,,,0.00,1.000000,,2013-05-11 07:21:00,
2013-05-11 00:32:00,63.0,36.0,-100.00,North,350,6.0,13.0,37,0.00,,,0.00,1.000000,,2013-05-11 07:32:00,
2013-05-11 00:42:00,63.0,36.0,-100.00,North,350,6.0,13.0,37,0.00,,,0.00,1.000000,,2013-05-11 07:42:00,
2013-05-11 00:52:00,63.0,36.0,-100.00,North,350,6.0,13.0,37,0.00,,,0.00,1.000000,,2013-05-11 07:52:00,
2013-05-11 01:21:00,62.0,36.0,-100.00,NNW,340,5.0,12.0,38,0.00,,,-99.99,1.000000,,2013-05-11 08:21:00,
2013-05-11 01:31:00,62.0,36.0,-100.00,NNW,340,5.0,12.0,38,0.00,,,-99.99,1.000000,,2013-05-11 08:31:00,
2013-05-11 01:42:00,62.0,36.0,-100.00,NNW,340,5.0,12.0,38,0.00,,,-99.99,1.000000,,2013-05-11 08:42:00,
2013-05-11 01:51:00,62.0,36.0,-100.00,NNW,340,5.0,12.0,38,0.00,,,-99.99,1.000000,,2013-05-11 08:51:00,
2013-05-11 02:21:00,63.0,36.0,-100.00,North,359,5.0,9.0,37,0.00,,,0.00,1.000000,,2013-05-11 09:21:00,
2013-05-11 02:32:00,63.0,36.0,-100.00,North,359,5.0,9.0,37,0.00,,,0.00,1.000000,,2013-05-11 09:32:00,
2013-05-11 02:42:00,63.0,36.0,-100.00,North,359,5.0,9.0,37,0.00,,,0.00,1.000000,,2013-05-11 09:42:00,
2013-05-11 02:52:00,63.0,36.0,-100.00,North,359,5.0,9.0,37,0.00,,,0.00,1.000000,,2013-05-11 09:52:00,
2013-05-11 03:22:00,63.0,36.0,-100.00,North,352,5.0,9.0,36,0.00,,,0.00,1.000000,,2013-05-11 10:22:00,
2013-05-11 03:33:00,63.0,36.0,-100.00,North,352,5.0,9.0,36,0.00,,,0.00,1.000000,,2013-05-11 10:33:00,
2013-05-11 03:42:00,63.0,36.0,-100.00,North,352,5.0,9.0,36,0.00,,,0.00,1.000000,,2013-05-11 10:42:00,
2013-05-11 03:52:00,63.0,36.0,-100.00,North,352,5.0,9.0,36,0.00,,,0.00,1.000000,,2013-05-11 10:52:00,
2013-05-11 04:32:00,63.0,36.0,-100.00,NNW,346,6.0,9.0,36,0.00,,,-99.99,1.000000,,2013-05-11 11:32:00,
2013-05-11 04:42:00,63.0,36.0,-100.00,NNW,346,6.0,9.0,36,0.00,,,-99.99,1.000000,,2013-05-11 11:42:00,
2013-05-11 04:51:00,63.0,36.0,-100.00,NNW,346,6.0,9.0,36,0.00,,,-99.99,1.000000,,2013-05-11 11:51:00,
2013-05-11 05:21:00,63.0,36.0,-100.00,NNW,347,6.0,8.0,37,0.00,,,-99.99,1.000000,,2013-05-11 12:21:00,
2013-05-11 05:32:00,63.0,36.0,-100.00,NNW,347,6.0,8.0,37,0.00,,,-99.99,1.000000,,2013-05-11 12:32:00,
2013-05-11 05:42:00,63.0,36.0,-100.00,NNW,347,6.0,8.0,37,0.00,,,-99.99,1.000000,,2013-05-11 12:42:00,
2013-05-11 05:51:00,63.0,36.0,-100.00,NNW,347,6.0,8.0,37,0.00,,,-99.99,1.000000,,2013-05-11 12:51:00,
2013-05-11 06:31:00,63.0,38.0,-100.00,NNW,347,8.0,10.0,40,0.00,,,-99.99,2.000000,,2013-05-11 13:31:00,
2013-05-11 06:41:00,63.0,38.0,-100.00,NNW,347,8.0,10.0,40,0.00,,,-99.99,2.000000,,2013-05-11 13:41:00,
2013-05-11 06:52:00,63.0,38.0,-100.00,NNW,347,8.0,10.0,40,0.00,,,-99.99,2.000000,,2013-05-11 13:52:00,
2013-05-11 07:32:00,65.0,37.0,-100.00,NNW,348,7.0,9.0,36,0.00,,,0.00,22.000000,,2013-05-11 14:32:00,
2013-05-11 07:41:00,65.0,37.0,-100.00,NNW,348,7.0,9.0,36,0.00,,,0.00,22.000000,,2013-05-11 14:41:00,
2013-05-11 07:51:00,65.0,37.0,-100.00,NNW,348,7.0,9.0,36,0.00,,,0.00,22.000000,,2013-05-11 14:51:00,
2013-05-11 08:32:00,68.0,39.0,-100.00,North,350,6.0,11.0,34,0.00,,,0.00,260.000000,,2013-05-11 15:32:00,
2013-05-11 08:42:00,68.0,39.0,-100.00,North,350,6.0,11.0,34,0.00,,,0.00,260.000000,,2013-05-11 15:42:00,
2013-05-11 08:53:00,68.0,39.0,-100.00,North,350,6.0,11.0,34,0.00,,,0.00,260.000000,,2013-05-11 15:53:00,
2013-05-11 09:33:00,71.0,40.0,-100.00,North,356,6.0,11.0,32,0.00,,,0.00,519.000000,,2013-05-11 16:33:00,
2013-05-11 09:42:00,71.0,40.0,-100.00,North,356,6.0,11.0,32,0.00,,,0.00,519.000000,,2013-05-11 16:42:00,
2013-05-11 09:52:00,71.0,40.0,-100.00,North,356,6.0,11.0,32,0.00,,,0.00,519.000000,,2013-05-11 16:52:00,
2013-05-11 11:32:00,78.0,40.0,-100.00,NE,40,3.0,10.0,26,-99.99,,,0.00,342.000000,,2013-05-11 18:32:00,
2013-05-11 11:41:00,78.0,40.0,-100.00,NE,40,3.0,10.0,26,-99.99,,,0.00,342.000000,,2013-05-11 18:41:00,
2013-05-11 11:51:00,78.0,40.0,-100.00,NE,40,3.0,10.0,26,-99.99,,,0.00,342.000000,,2013-05-11 18:51:00,
2013-05-11 12:21:00,80.0,37.0,-100.00,East,87,7.0,17.0,21,0.00,,,0.00,591.000000,,2013-05-11 19:21:00,
2013-05-11 12:32:00,80.0,37.0,-100.00,East,87,7.0,17.0,21,0.00,,,0.00,591.000000,,2013-05-11 19:32:00,
2013-05-11 12:41:00,80.0,37.0,-100.00,East,87,7.0,17.0,21,0.00,,,0.00,591.000000,,2013-05-11 19:41:00,
2013-05-11 12:52:00,80.0,37.0,-100.00,East,87,7.0,17.0,21,0.00,,,0.00,591.000000,,2013-05-11 19:52:00,
2013-05-11 13:22:00,81.0,35.0,-100.00,ENE,75,6.0,16.0,19,0.00,,,0.00,1144.000000,,2013-05-11 20:22:00,
2013-05-11 13:32:00,81.0,35.0,-100.00,ENE,75,6.0,16.0,19,0.00,,,0.00,1144.000000,,2013-05-11 20:32:00,
2013-05-11 13:42:00,81.0,35.0,-100.00,ENE,75,6.0,16.0,19,0.00,,,0.00,1144.000000,,2013-05-11 20:42:00,
2013-05-11 13:52:00,81.0,35.0,-100.00,ENE,75,6.0,16.0,19,0.00,,,0.00,1144.000000,,2013-05-11 20:52:00,
2013-05-11 14:21:00,83.0,32.0,-100.00,NE,38,5.0,17.0,16,0.00,,,0.00,1135.000000,,2013-05-11 21:21:00,
2013-05-11 14:33:00,83.0,32.0,-100.00,NE,38,5.0,17.0,16,0.00,,,0.00,1135.000000,,2013-05-11 21:33:00,
2013-05-11 14:43:00,83.0,32.0,-100.00,NE,38,5.0,17.0,16,0.00,,,0.00,1135.000000,,2013-05-11 21:43:00,
2013-05-11 14:52:00,83.0,32.0,-100.00,NE,38,5.0,17.0,16,0.00,,,0.00,1135.000000,,2013-05-11 21:52:00,
2013-05-11 15:23:00,84.0,30.0,-100.00,NNE,13,5.0,15.0,14,0.00,,,0.00,1079.000000,,2013-05-11 22:23:00,
2013-05-11 15:33:00,84.0,30.0,-100.00,NNE,13,5.0,15.0,14,0.00,,,0.00,1079.000000,,2013-05-11 22:33:00,
2013-05-11 15:42:00,84.0,30.0,-100.00,NNE,13,5.0,15.0,14,0.00,,,0.00,1079.000000,,2013-05-11 22:42:00,
2013-05-11 15:52:00,84.0,30.0,-100.00,NNE,13,5.0,15.0,14,0.00,,,0.00,1079.000000,,2013-05-11 22:52:00,
2013-05-11 16:22:00,84.0,31.0,-100.00,ENE,73,5.0,17.0,15,0.00,,,0.00,946.000000,,2013-05-11 23:22:00,
2013-05-11 16:32:00,84.0,31.0,-100.00,ENE,73,5.0,17.0,15,0.00,,,0.00,946.000000,,2013-05-11 23:32:00,
2013-05-11 16:42:00,84.0,31.0,-100.00,ENE,73,5.0,17.0,15,0.00,,,0.00,946.000000,,2013-05-11 23:42:00,
2013-05-11 16:52:00,84.0,31.0,-100.00,ENE,73,5.0,17.0,15,0.00,,,0.00,946.000000,,2013-05-11 23:52:00,
2013-05-11 17:21:00,83.0,29.0,-100.00,NNE,21,4.0,12.0,14,0.00,,,0.00,741.000000,,2013-05-12 00:21:00,
2013-05-11 17:32:00,83.0,29.0,-100.00,NNE,21,4.0,12.0,14,0.00,,,0.00,741.000000,,2013-05-12 00:32:00,
2013-05-11 17:42:00,83.0,29.0,-100.00,NNE,21,4.0,12.0,14,0.00,,,0.00,741.000000,,2013-05-12 00:42:00,
2013-05-11 17:52:00,83.0,29.0,-100.00,NNE,21,4.0,12.0,14,0.00,,,0.00,741.000000,,2013-05-12 00:52:00,
2013-05-11 18:21:00,79.0,32.0,-100.00,SSW,199,8.0,12.0,18,0.00,,,0.00,488.000000,,2013-05-12 01:21:00,
2013-05-11 18:32:00,79.0,32.0,-100.00,SSW,199,8.0,12.0,18,0.00,,,0.00,488.000000,,2013-05-12 01:32:00,
2013-05-11 18:41:00,79.0,32.0,-100.00,SSW,199,8.0,12.0,18,0.00,,,0.00,488.000000,,2013-05-12 01:41:00,
2013-05-11 18:52:00,79.0,32.0,-100.00,SSW,199,8.0,12.0,18,0.00,,,0.00,488.000000,,2013-05-12 01:52:00,
2013-05-11 19:22:00,73.0,38.0,-100.00,SSW,197,9.0,15.0,28,0.00,,,0.00,244.000000,,2013-05-12 02:22:00,
2013-05-11 19:31:00,73.0,38.0,-100.00,SSW,197,9.0,15.0,28,0.00,,,0.00,244.000000,,2013-05-12 02:31:00,
2013-05-11 19:42:00,73.0,38.0,-100.00,SSW,197,9.0,15.0,28,0.00,,,0.00,244.000000,,2013-05-12 02:42:00,
2013-05-11 19:52:00,73.0,38.0,-100.00,SSW,197,9.0,15.0,28,0.00,,,0.00,244.000000,,2013-05-12 02:52:00,
2013-05-11 20:22:00,69.0,36.0,-100.00,South,185,8.0,11.0,30,0.00,,,0.00,27.000000,,2013-05-12 03:22:00,
2013-05-11 20:32:00,69.0,36.0,-100.00,South,185,8.0,11.0,30,0.00,,,0.00,27.000000,,2013-05-12 03:32:00,
2013-05-11 20:42:00,69.0,36.0,-100.00,South,185,8.0,11.0,30,0.00,,,0.00,27.000000,,2013-05-12 03:42:00,
2013-05-11 20:53:00,69.0,36.0,-100.00,South,185,8.0,11.0,30,0.00,,,0.00,27.000000,,2013-05-12 03:53:00,
2013-05-11 21:33:00,71.0,40.0,-100.00,WNW,297,5.0,10.0,32,0.00,,,0.00,1.000000,,2013-05-12 04:33:00,
2013-05-11 21:43:00,71.0,40.0,-100.00,WNW,297,5.0,10.0,32,0.00,,,0.00,1.000000,,2013-05-12 04:43:00,
2013-05-11 21:52:00,71.0,40.0,-100.00,WNW,297,5.0,10.0,32,0.00,,,0.00,1.000000,,2013-05-12 04:52:00,
2013-05-11 22:22:00,69.0,44.0,-100.00,North,352,5.0,9.0,40,0.00,,,0.00,1.000000,,2013-05-12 05:22:00,
2013-05-11 22:31:00,69.0,44.0,-100.00,North,352,5.0,9.0,40,0.00,,,0.00,1.000000,,2013-05-12 05:31:00,
2013-05-11 22:42:00,69.0,44.0,-100.00,North,352,5.0,9.0,40,0.00,,,0.00,1.000000,,2013-05-12 05:42:00,
2013-05-11 22:51:00,69.0,44.0,-100.00,North,352,5.0,9.0,40,0.00,,,0.00,1.000000,,2013-05-12 05:51:00,
2013-05-11 23:32:00,69.0,42.0,-100.00,NNW,347,6.0,9.0,37,0.00,,,0.00,1.000000,,2013-05-12 06:32:00,
2013-05-11 23:42:00,69.0,42.0,-100.00,NNW,347,6.0,9.0,37,0.00,,,0.00,1.000000,,2013-05-12 06:42:00,
2013-05-11 23:51:00,69.0,42.0,-100.00,NNW,347,6.0,9.0,37,0.00,,,0.00,1.000000,,2013-05-12 06:51:00,